sensor_id;sensor_type;location;lat;lon;timestamp;P1;durP1;ratioP1;P2;durP2;ratioP2
23608;SDS011;11982;50.810;4.442;2023-03-12T00:01:23;24.92;;;11.18;;
23608;SDS011;11982;50.810;4.442;2023-03-12T00:03:51;21.13;;;10.10;;
23608;SDS011;11982;50.810;4.442;2023-03-12T00:06:18;28.17;;;10.95;;
23608;SDS011;11982;50.810;4.442;2023-03-12T00:08:45;21.83;;;10.40;;
23608;SDS011;11982;50.810;4.442;2023-03-12T00:11:13;25.63;;;10.50;;
23608;SDS011;11982;50.810;4.442;2023-03-12T00:13:43;21.45;;;9.00;;
23608;SDS011;11982;50.810;4.442;2023-03-12T00:16:10;21.77;;;9.32;;
23608;SDS011;11982;50.810;4.442;2023-03-12T00:18:37;17.15;;;8.23;;
23608;SDS011;11982;50.810;4.442;2023-03-12T00:21:03;19.10;;;8.80;;
23608;SDS011;11982;50.810;4.442;2023-03-12T00:23:30;18.88;;;8.70;;
23608;SDS011;11982;50.810;4.442;2023-03-12T00:26:02;24.45;;;8.48;;
23608;SDS011;11982;50.810;4.442;2023-03-12T00:28:34;18.83;;;8.80;;
23608;SDS011;11982;50.810;4.442;2023-03-12T00:31:00;18.88;;;8.40;;
23608;SDS011;11982;50.810;4.442;2023-03-12T00:33:28;18.17;;;8.25;;
23608;SDS011;11982;50.810;4.442;2023-03-12T00:35:54;19.75;;;8.38;;
23608;SDS011;11982;50.810;4.442;2023-03-12T00:38:20;16.65;;;8.48;;
23608;SDS011;11982;50.810;4.442;2023-03-12T00:40:46;17.45;;;7.97;;
23608;SDS011;11982;50.810;4.442;2023-03-12T00:43:13;15.60;;;7.10;;
23608;SDS011;11982;50.810;4.442;2023-03-12T00:45:38;19.42;;;7.60;;
23608;SDS011;11982;50.810;4.442;2023-03-12T00:48:04;22.52;;;7.55;;
23608;SDS011;11982;50.810;4.442;2023-03-12T00:50:30;17.45;;;6.25;;
23608;SDS011;11982;50.810;4.442;2023-03-12T00:52:56;13.05;;;6.38;;
23608;SDS011;11982;50.810;4.442;2023-03-12T00:55:21;19.63;;;6.45;;
23608;SDS011;11982;50.810;4.442;2023-03-12T00:57:47;15.48;;;6.22;;
23608;SDS011;11982;50.810;4.442;2023-03-12T01:00:16;16.00;;;5.63;;
23608;SDS011;11982;50.810;4.442;2023-03-12T01:02:42;13.35;;;5.30;;
23608;SDS011;11982;50.810;4.442;2023-03-12T01:05:10;12.73;;;5.60;;
23608;SDS011;11982;50.810;4.442;2023-03-12T01:07:36;14.82;;;5.45;;
23608;SDS011;11982;50.810;4.442;2023-03-12T01:10:02;16.70;;;5.18;;
23608;SDS011;11982;50.810;4.442;2023-03-12T01:12:28;13.27;;;5.45;;
23608;SDS011;11982;50.810;4.442;2023-03-12T01:14:54;12.25;;;4.90;;
23608;SDS011;11982;50.810;4.442;2023-03-12T01:17:19;12.02;;;5.38;;
23608;SDS011;11982;50.810;4.442;2023-03-12T01:19:45;11.75;;;4.75;;
23608;SDS011;11982;50.810;4.442;2023-03-12T01:22:11;16.23;;;5.57;;
23608;SDS011;11982;50.810;4.442;2023-03-12T01:24:36;11.43;;;5.43;;
23608;SDS011;11982;50.810;4.442;2023-03-12T01:27:02;16.02;;;5.70;;
23608;SDS011;11982;50.810;4.442;2023-03-12T01:29:28;13.73;;;5.88;;
23608;SDS011;11982;50.810;4.442;2023-03-12T01:31:53;18.23;;;5.70;;
23608;SDS011;11982;50.810;4.442;2023-03-12T01:34:19;14.73;;;5.97;;
23608;SDS011;11982;50.810;4.442;2023-03-12T01:36:45;15.07;;;5.78;;
23608;SDS011;11982;50.810;4.442;2023-03-12T01:39:11;12.95;;;5.68;;
23608;SDS011;11982;50.810;4.442;2023-03-12T01:41:38;19.08;;;5.75;;
23608;SDS011;11982;50.810;4.442;2023-03-12T01:44:04;18.58;;;5.80;;
23608;SDS011;11982;50.810;4.442;2023-03-12T01:51:32;17.40;;;4.97;;
23608;SDS011;11982;50.810;4.442;2023-03-12T01:54:04;16.83;;;5.50;;
23608;SDS011;11982;50.810;4.442;2023-03-12T01:56:35;10.90;;;4.93;;
23608;SDS011;11982;50.810;4.442;2023-03-12T01:59:04;14.05;;;5.25;;
23608;SDS011;11982;50.810;4.442;2023-03-12T02:01:33;11.52;;;4.90;;
23608;SDS011;11982;50.810;4.442;2023-03-12T02:03:59;18.90;;;5.35;;
23608;SDS011;11982;50.810;4.442;2023-03-12T02:06:28;12.73;;;4.90;;
23608;SDS011;11982;50.810;4.442;2023-03-12T02:09:05;18.65;;;4.97;;
23608;SDS011;11982;50.810;4.442;2023-03-12T02:11:32;12.82;;;4.57;;
23608;SDS011;11982;50.810;4.442;2023-03-12T02:13:57;13.25;;;5.18;;
23608;SDS011;11982;50.810;4.442;2023-03-12T02:16:23;19.42;;;4.68;;
23608;SDS011;11982;50.810;4.442;2023-03-12T02:18:49;15.45;;;4.65;;
23608;SDS011;11982;50.810;4.442;2023-03-12T02:21:28;14.15;;;4.88;;
23608;SDS011;11982;50.810;4.442;2023-03-12T02:24:19;15.60;;;4.32;;
23608;SDS011;11982;50.810;4.442;2023-03-12T02:27:04;18.08;;;4.05;;
23608;SDS011;11982;50.810;4.442;2023-03-12T02:29:31;10.48;;;4.32;;
23608;SDS011;11982;50.810;4.442;2023-03-12T02:31:58;10.00;;;3.92;;
23608;SDS011;11982;50.810;4.442;2023-03-12T02:34:26;16.42;;;4.30;;
23608;SDS011;11982;50.810;4.442;2023-03-12T02:36:52;11.18;;;4.50;;
23608;SDS011;11982;50.810;4.442;2023-03-12T02:39:18;11.27;;;4.15;;
23608;SDS011;11982;50.810;4.442;2023-03-12T02:41:45;13.05;;;4.18;;
23608;SDS011;11982;50.810;4.442;2023-03-12T02:44:24;9.70;;;4.20;;
23608;SDS011;11982;50.810;4.442;2023-03-12T02:46:54;11.60;;;4.32;;
23608;SDS011;11982;50.810;4.442;2023-03-12T02:49:22;12.63;;;4.25;;
23608;SDS011;11982;50.810;4.442;2023-03-12T02:51:51;12.82;;;4.97;;
23608;SDS011;11982;50.810;4.442;2023-03-12T02:54:17;9.82;;;4.15;;
23608;SDS011;11982;50.810;4.442;2023-03-12T02:56:44;9.00;;;4.32;;
23608;SDS011;11982;50.810;4.442;2023-03-12T02:59:10;13.88;;;4.38;;
23608;SDS011;11982;50.810;4.442;2023-03-12T03:01:38;10.38;;;4.18;;
23608;SDS011;11982;50.810;4.442;2023-03-12T03:04:05;14.23;;;4.25;;
23608;SDS011;11982;50.810;4.442;2023-03-12T03:06:33;13.15;;;4.25;;
23608;SDS011;11982;50.810;4.442;2023-03-12T03:09:00;11.68;;;4.45;;
23608;SDS011;11982;50.810;4.442;2023-03-12T03:11:26;19.17;;;4.68;;
23608;SDS011;11982;50.810;4.442;2023-03-12T03:13:52;13.48;;;4.43;;
23608;SDS011;11982;50.810;4.442;2023-03-12T03:16:19;12.65;;;4.47;;
23608;SDS011;11982;50.810;4.442;2023-03-12T03:18:45;13.95;;;4.30;;
23608;SDS011;11982;50.810;4.442;2023-03-12T03:21:12;10.93;;;4.25;;
23608;SDS011;11982;50.810;4.442;2023-03-12T03:23:44;12.95;;;4.55;;
23608;SDS011;11982;50.810;4.442;2023-03-12T03:26:11;12.85;;;4.00;;
23608;SDS011;11982;50.810;4.442;2023-03-12T03:28:38;14.70;;;4.88;;
23608;SDS011;11982;50.810;4.442;2023-03-12T03:31:04;14.20;;;5.05;;
23608;SDS011;11982;50.810;4.442;2023-03-12T03:33:31;12.20;;;4.15;;
23608;SDS011;11982;50.810;4.442;2023-03-12T03:35:59;15.05;;;4.80;;
23608;SDS011;11982;50.810;4.442;2023-03-12T03:38:26;13.90;;;4.50;;
23608;SDS011;11982;50.810;4.442;2023-03-12T03:40:52;13.85;;;4.40;;
23608;SDS011;11982;50.810;4.442;2023-03-12T03:43:18;14.48;;;4.50;;
23608;SDS011;11982;50.810;4.442;2023-03-12T03:45:45;11.15;;;4.20;;
23608;SDS011;11982;50.810;4.442;2023-03-12T03:48:11;10.77;;;4.03;;
23608;SDS011;11982;50.810;4.442;2023-03-12T03:50:38;13.45;;;4.40;;
23608;SDS011;11982;50.810;4.442;2023-03-12T03:53:05;10.10;;;4.07;;
23608;SDS011;11982;50.810;4.442;2023-03-12T03:55:35;10.95;;;5.03;;
23608;SDS011;11982;50.810;4.442;2023-03-12T03:58:01;10.02;;;4.55;;
23608;SDS011;11982;50.810;4.442;2023-03-12T04:00:27;13.25;;;4.57;;
23608;SDS011;11982;50.810;4.442;2023-03-12T04:02:53;12.68;;;5.05;;
23608;SDS011;11982;50.810;4.442;2023-03-12T04:05:19;10.55;;;4.63;;
23608;SDS011;11982;50.810;4.442;2023-03-12T04:07:45;11.20;;;4.85;;
23608;SDS011;11982;50.810;4.442;2023-03-12T04:10:11;15.60;;;5.07;;
23608;SDS011;11982;50.810;4.442;2023-03-12T04:12:37;12.65;;;5.10;;
23608;SDS011;11982;50.810;4.442;2023-03-12T04:15:03;12.77;;;4.82;;
23608;SDS011;11982;50.810;4.442;2023-03-12T04:17:29;14.48;;;4.45;;
23608;SDS011;11982;50.810;4.442;2023-03-12T04:19:55;13.85;;;5.78;;
23608;SDS011;11982;50.810;4.442;2023-03-12T04:22:21;11.07;;;5.03;;
23608;SDS011;11982;50.810;4.442;2023-03-12T04:24:47;11.30;;;5.18;;
23608;SDS011;11982;50.810;4.442;2023-03-12T04:27:12;15.23;;;5.38;;
23608;SDS011;11982;50.810;4.442;2023-03-12T04:29:38;13.48;;;6.03;;
23608;SDS011;11982;50.810;4.442;2023-03-12T04:32:05;16.25;;;5.82;;
23608;SDS011;11982;50.810;4.442;2023-03-12T04:34:31;13.23;;;5.50;;
23608;SDS011;11982;50.810;4.442;2023-03-12T04:36:57;11.05;;;5.25;;
23608;SDS011;11982;50.810;4.442;2023-03-12T04:39:24;17.75;;;6.57;;
23608;SDS011;11982;50.810;4.442;2023-03-12T04:41:50;13.63;;;5.97;;
23608;SDS011;11982;50.810;4.442;2023-03-12T04:44:15;15.38;;;6.00;;
23608;SDS011;11982;50.810;4.442;2023-03-12T04:46:41;17.60;;;6.32;;
23608;SDS011;11982;50.810;4.442;2023-03-12T04:49:07;14.60;;;6.10;;
23608;SDS011;11982;50.810;4.442;2023-03-12T04:51:33;17.50;;;6.43;;
23608;SDS011;11982;50.810;4.442;2023-03-12T04:53:59;15.40;;;6.15;;
23608;SDS011;11982;50.810;4.442;2023-03-12T04:56:24;17.60;;;7.25;;
23608;SDS011;11982;50.810;4.442;2023-03-12T04:58:50;14.02;;;6.85;;
23608;SDS011;11982;50.810;4.442;2023-03-12T05:01:27;14.50;;;6.88;;
23608;SDS011;11982;50.810;4.442;2023-03-12T05:03:54;17.60;;;7.13;;
23608;SDS011;11982;50.810;4.442;2023-03-12T05:06:21;14.80;;;7.25;;
23608;SDS011;11982;50.810;4.442;2023-03-12T05:08:48;15.68;;;7.80;;
23608;SDS011;11982;50.810;4.442;2023-03-12T05:11:14;18.48;;;7.00;;
23608;SDS011;11982;50.810;4.442;2023-03-12T05:13:41;12.95;;;7.63;;
23608;SDS011;11982;50.810;4.442;2023-03-12T05:16:06;18.17;;;8.35;;
23608;SDS011;11982;50.810;4.442;2023-03-12T05:18:32;17.60;;;8.07;;
23608;SDS011;11982;50.810;4.442;2023-03-12T05:21:00;18.08;;;8.13;;
23608;SDS011;11982;50.810;4.442;2023-03-12T05:23:27;18.15;;;9.05;;
23608;SDS011;11982;50.810;4.442;2023-03-12T05:25:53;20.35;;;9.25;;
23608;SDS011;11982;50.810;4.442;2023-03-12T05:28:19;18.15;;;9.15;;
23608;SDS011;11982;50.810;4.442;2023-03-12T05:30:45;20.55;;;9.48;;
23608;SDS011;11982;50.810;4.442;2023-03-12T05:33:12;20.48;;;10.23;;
23608;SDS011;11982;50.810;4.442;2023-03-12T05:35:38;18.55;;;10.18;;
23608;SDS011;11982;50.810;4.442;2023-03-12T05:38:04;22.48;;;10.43;;
23608;SDS011;11982;50.810;4.442;2023-03-12T05:40:29;19.25;;;10.35;;
23608;SDS011;11982;50.810;4.442;2023-03-12T05:42:55;26.00;;;10.82;;
23608;SDS011;11982;50.810;4.442;2023-03-12T05:45:21;18.48;;;10.57;;
23608;SDS011;11982;50.810;4.442;2023-03-12T05:47:46;17.42;;;11.32;;
23608;SDS011;11982;50.810;4.442;2023-03-12T05:50:12;20.15;;;11.98;;
23608;SDS011;11982;50.810;4.442;2023-03-12T05:52:40;24.85;;;12.13;;
23608;SDS011;11982;50.810;4.442;2023-03-12T05:55:06;21.08;;;12.40;;
23608;SDS011;11982;50.810;4.442;2023-03-12T05:57:32;25.63;;;12.95;;
23608;SDS011;11982;50.810;4.442;2023-03-12T05:59:58;23.40;;;12.38;;
23608;SDS011;11982;50.810;4.442;2023-03-12T06:02:23;24.80;;;14.18;;
23608;SDS011;11982;50.810;4.442;2023-03-12T06:04:49;27.83;;;14.13;;
23608;SDS011;11982;50.810;4.442;2023-03-12T06:07:15;25.75;;;14.32;;
23608;SDS011;11982;50.810;4.442;2023-03-12T06:09:40;24.95;;;14.00;;
23608;SDS011;11982;50.810;4.442;2023-03-12T06:12:07;24.95;;;14.60;;
23608;SDS011;11982;50.810;4.442;2023-03-12T06:14:32;28.13;;;14.63;;
23608;SDS011;11982;50.810;4.442;2023-03-12T06:16:58;29.42;;;15.55;;
23608;SDS011;11982;50.810;4.442;2023-03-12T06:19:24;29.90;;;15.82;;
23608;SDS011;11982;50.810;4.442;2023-03-12T06:21:49;25.92;;;14.90;;
23608;SDS011;11982;50.810;4.442;2023-03-12T06:24:15;26.58;;;15.73;;
23608;SDS011;11982;50.810;4.442;2023-03-12T06:26:41;28.73;;;15.82;;
23608;SDS011;11982;50.810;4.442;2023-03-12T06:29:07;26.75;;;15.45;;
23608;SDS011;11982;50.810;4.442;2023-03-12T06:31:33;36.28;;;16.20;;
23608;SDS011;11982;50.810;4.442;2023-03-12T06:33:58;28.20;;;16.60;;
23608;SDS011;11982;50.810;4.442;2023-03-12T06:36:24;29.15;;;16.80;;
23608;SDS011;11982;50.810;4.442;2023-03-12T06:38:50;31.90;;;16.42;;
23608;SDS011;11982;50.810;4.442;2023-03-12T06:41:17;34.58;;;17.35;;
23608;SDS011;11982;50.810;4.442;2023-03-12T06:43:43;25.80;;;15.90;;
23608;SDS011;11982;50.810;4.442;2023-03-12T06:46:13;37.55;;;17.05;;
23608;SDS011;11982;50.810;4.442;2023-03-12T06:48:41;32.88;;;17.00;;
23608;SDS011;11982;50.810;4.442;2023-03-12T06:51:07;34.40;;;17.10;;
23608;SDS011;11982;50.810;4.442;2023-03-12T06:53:34;31.77;;;17.02;;
23608;SDS011;11982;50.810;4.442;2023-03-12T06:56:01;33.05;;;16.00;;
23608;SDS011;11982;50.810;4.442;2023-03-12T06:58:26;31.67;;;15.73;;
23608;SDS011;11982;50.810;4.442;2023-03-12T07:00:52;38.05;;;18.02;;
23608;SDS011;11982;50.810;4.442;2023-03-12T07:03:18;41.28;;;16.98;;
23608;SDS011;11982;50.810;4.442;2023-03-12T07:05:48;36.20;;;18.17;;
23608;SDS011;11982;50.810;4.442;2023-03-12T07:08:15;41.97;;;18.67;;
23608;SDS011;11982;50.810;4.442;2023-03-12T07:10:42;36.53;;;18.40;;
23608;SDS011;11982;50.810;4.442;2023-03-12T07:13:08;38.72;;;17.15;;
23608;SDS011;11982;50.810;4.442;2023-03-12T07:15:34;36.90;;;18.88;;
23608;SDS011;11982;50.810;4.442;2023-03-12T07:18:02;40.15;;;17.17;;
23608;SDS011;11982;50.810;4.442;2023-03-12T07:20:30;39.25;;;17.38;;
23608;SDS011;11982;50.810;4.442;2023-03-12T07:22:55;40.35;;;16.38;;
23608;SDS011;11982;50.810;4.442;2023-03-12T07:25:21;42.70;;;18.42;;
23608;SDS011;11982;50.810;4.442;2023-03-12T07:27:47;47.72;;;18.63;;
23608;SDS011;11982;50.810;4.442;2023-03-12T07:30:12;39.03;;;18.35;;
23608;SDS011;11982;50.810;4.442;2023-03-12T07:32:38;50.28;;;19.60;;
23608;SDS011;11982;50.810;4.442;2023-03-12T07:35:04;47.72;;;18.67;;
23608;SDS011;11982;50.810;4.442;2023-03-12T07:37:30;56.00;;;20.55;;
23608;SDS011;11982;50.810;4.442;2023-03-12T07:39:56;47.88;;;19.83;;
23608;SDS011;11982;50.810;4.442;2023-03-12T07:42:22;50.58;;;19.83;;
23608;SDS011;11982;50.810;4.442;2023-03-12T07:44:47;48.83;;;20.27;;
23608;SDS011;11982;50.810;4.442;2023-03-12T07:47:13;46.35;;;18.73;;
23608;SDS011;11982;50.810;4.442;2023-03-12T07:49:39;49.58;;;17.80;;
23608;SDS011;11982;50.810;4.442;2023-03-12T07:52:06;60.53;;;19.33;;
23608;SDS011;11982;50.810;4.442;2023-03-12T07:54:34;63.00;;;20.83;;
23608;SDS011;11982;50.810;4.442;2023-03-12T07:57:00;72.32;;;21.63;;
23608;SDS011;11982;50.810;4.442;2023-03-12T07:59:26;68.57;;;22.20;;
23608;SDS011;11982;50.810;4.442;2023-03-12T08:01:52;81.20;;;22.55;;
23608;SDS011;11982;50.810;4.442;2023-03-12T08:04:18;80.80;;;23.90;;
23608;SDS011;11982;50.810;4.442;2023-03-12T08:06:43;98.28;;;24.83;;
23608;SDS011;11982;50.810;4.442;2023-03-12T08:09:09;94.32;;;24.80;;
23608;SDS011;11982;50.810;4.442;2023-03-12T08:11:35;87.35;;;25.50;;
23608;SDS011;11982;50.810;4.442;2023-03-12T08:14:01;103.43;;;26.88;;
23608;SDS011;11982;50.810;4.442;2023-03-12T08:16:30;102.80;;;25.70;;
23608;SDS011;11982;50.810;4.442;2023-03-12T08:18:56;112.88;;;25.65;;
23608;SDS011;11982;50.810;4.442;2023-03-12T08:21:22;100.88;;;23.63;;
23608;SDS011;11982;50.810;4.442;2023-03-12T08:23:48;128.98;;;25.75;;
23608;SDS011;11982;50.810;4.442;2023-03-12T08:26:13;104.43;;;25.55;;
23608;SDS011;11982;50.810;4.442;2023-03-12T08:28:39;107.70;;;25.85;;
23608;SDS011;11982;50.810;4.442;2023-03-12T08:31:05;102.85;;;25.90;;
23608;SDS011;11982;50.810;4.442;2023-03-12T08:33:31;101.93;;;23.75;;
23608;SDS011;11982;50.810;4.442;2023-03-12T08:35:57;114.75;;;25.73;;
23608;SDS011;11982;50.810;4.442;2023-03-12T08:38:22;118.05;;;25.25;;
23608;SDS011;11982;50.810;4.442;2023-03-12T08:40:58;93.60;;;20.92;;
23608;SDS011;11982;50.810;4.442;2023-03-12T08:43:25;94.15;;;18.08;;
23608;SDS011;11982;50.810;4.442;2023-03-12T08:45:55;116.68;;;25.20;;
23608;SDS011;11982;50.810;4.442;2023-03-12T08:48:26;123.63;;;23.40;;
23608;SDS011;11982;50.810;4.442;2023-03-12T08:50:57;99.82;;;23.42;;
23608;SDS011;11982;50.810;4.442;2023-03-12T08:53:24;84.30;;;20.77;;
23608;SDS011;11982;50.810;4.442;2023-03-12T08:55:52;96.80;;;23.33;;
23608;SDS011;11982;50.810;4.442;2023-03-12T08:58:18;102.72;;;22.35;;
23608;SDS011;11982;50.810;4.442;2023-03-12T09:00:44;110.68;;;21.88;;
23608;SDS011;11982;50.810;4.442;2023-03-12T09:03:10;93.75;;;21.70;;
23608;SDS011;11982;50.810;4.442;2023-03-12T09:05:38;90.03;;;19.95;;
23608;SDS011;11982;50.810;4.442;2023-03-12T09:08:05;99.05;;;19.77;;
23608;SDS011;11982;50.810;4.442;2023-03-12T09:10:31;83.65;;;18.70;;
23608;SDS011;11982;50.810;4.442;2023-03-12T09:12:57;80.72;;;17.63;;
23608;SDS011;11982;50.810;4.442;2023-03-12T09:15:23;64.95;;;16.60;;
23608;SDS011;11982;50.810;4.442;2023-03-12T09:17:49;78.53;;;16.80;;
23608;SDS011;11982;50.810;4.442;2023-03-12T09:20:15;76.72;;;17.17;;
23608;SDS011;11982;50.810;4.442;2023-03-12T09:22:41;74.40;;;15.25;;
23608;SDS011;11982;50.810;4.442;2023-03-12T09:25:07;84.82;;;16.77;;
23608;SDS011;11982;50.810;4.442;2023-03-12T09:27:38;67.25;;;14.98;;
23608;SDS011;11982;50.810;4.442;2023-03-12T09:30:10;92.70;;;15.30;;
23608;SDS011;11982;50.810;4.442;2023-03-12T09:32:38;87.53;;;15.52;;
23608;SDS011;11982;50.810;4.442;2023-03-12T09:35:04;72.38;;;16.05;;
23608;SDS011;11982;50.810;4.442;2023-03-12T09:37:31;78.97;;;14.95;;
23608;SDS011;11982;50.810;4.442;2023-03-12T09:39:57;89.18;;;15.55;;
23608;SDS011;11982;50.810;4.442;2023-03-12T09:44:51;73.60;;;15.25;;
23608;SDS011;11982;50.810;4.442;2023-03-12T09:52:38;72.97;;;13.52;;
23608;SDS011;11982;50.810;4.442;2023-03-12T09:55:11;62.80;;;11.73;;
23608;SDS011;11982;50.810;4.442;2023-03-12T09:57:42;74.72;;;12.75;;
23608;SDS011;11982;50.810;4.442;2023-03-12T10:00:12;67.05;;;11.07;;
23608;SDS011;11982;50.810;4.442;2023-03-12T10:07:58;68.32;;;11.75;;
23608;SDS011;11982;50.810;4.442;2023-03-12T10:10:33;78.82;;;13.13;;
23608;SDS011;11982;50.810;4.442;2023-03-12T10:16:28;65.18;;;11.98;;
23608;SDS011;11982;50.810;4.442;2023-03-12T10:19:09;65.55;;;11.73;;
23608;SDS011;11982;50.810;4.442;2023-03-12T10:21:59;78.60;;;13.32;;
23608;SDS011;11982;50.810;4.442;2023-03-12T10:27:27;69.35;;;11.88;;
23608;SDS011;11982;50.810;4.442;2023-03-12T10:29:54;57.60;;;9.60;;
23608;SDS011;11982;50.810;4.442;2023-03-12T10:32:21;66.15;;;10.95;;
23608;SDS011;11982;50.810;4.442;2023-03-12T10:35:06;63.90;;;12.27;;
23608;SDS011;11982;50.810;4.442;2023-03-12T10:40:20;59.50;;;11.32;;
23608;SDS011;11982;50.810;4.442;2023-03-12T10:42:51;58.13;;;11.48;;
23608;SDS011;11982;50.810;4.442;2023-03-12T10:45:37;54.50;;;10.30;;
23608;SDS011;11982;50.810;4.442;2023-03-12T10:48:07;58.40;;;11.27;;
23608;SDS011;11982;50.810;4.442;2023-03-12T10:50:36;61.65;;;11.48;;
23608;SDS011;11982;50.810;4.442;2023-03-12T10:53:37;68.25;;;12.52;;
23608;SDS011;11982;50.810;4.442;2023-03-12T10:56:17;53.83;;;10.95;;
23608;SDS011;11982;50.810;4.442;2023-03-12T11:03:47;51.33;;;10.25;;
23608;SDS011;11982;50.810;4.442;2023-03-12T11:06:25;56.95;;;10.88;;
23608;SDS011;11982;50.810;4.442;2023-03-12T11:09:06;62.50;;;10.93;;
23608;SDS011;11982;50.810;4.442;2023-03-12T11:11:42;48.63;;;9.02;;
23608;SDS011;11982;50.810;4.442;2023-03-12T11:16:37;57.50;;;9.50;;
23608;SDS011;11982;50.810;4.442;2023-03-12T11:19:03;54.05;;;10.10;;
23608;SDS011;11982;50.810;4.442;2023-03-12T11:21:31;51.80;;;9.38;;
23608;SDS011;11982;50.810;4.442;2023-03-12T11:24:05;55.47;;;9.52;;
23608;SDS011;11982;50.810;4.442;2023-03-12T11:26:37;56.88;;;9.55;;
23608;SDS011;11982;50.810;4.442;2023-03-12T11:29:30;61.45;;;9.40;;
23608;SDS011;11982;50.810;4.442;2023-03-12T11:34:54;63.17;;;8.70;;
23608;SDS011;11982;50.810;4.442;2023-03-12T11:45:44;57.73;;;9.70;;
23608;SDS011;11982;50.810;4.442;2023-03-12T11:51:30;64.72;;;10.38;;
23608;SDS011;11982;50.810;4.442;2023-03-12T11:54:31;60.67;;;11.18;;
23608;SDS011;11982;50.810;4.442;2023-03-12T11:57:05;73.60;;;10.63;;
23608;SDS011;11982;50.810;4.442;2023-03-12T11:59:55;61.28;;;10.60;;
23608;SDS011;11982;50.810;4.442;2023-03-12T12:10:55;45.38;;;7.63;;
23608;SDS011;11982;50.810;4.442;2023-03-12T12:35:39;55.42;;;9.15;;
23608;SDS011;11982;50.810;4.442;2023-03-12T12:40:46;54.75;;;8.57;;
23608;SDS011;11982;50.810;4.442;2023-03-12T12:46:04;42.67;;;7.93;;
23608;SDS011;11982;50.810;4.442;2023-03-12T12:48:42;55.78;;;8.57;;
23608;SDS011;11982;50.810;4.442;2023-03-12T12:51:12;53.17;;;9.18;;
23608;SDS011;11982;50.810;4.442;2023-03-12T12:53:52;40.35;;;7.38;;
23608;SDS011;11982;50.810;4.442;2023-03-12T12:59:31;52.75;;;8.60;;
23608;SDS011;11982;50.810;4.442;2023-03-12T13:02:19;42.00;;;6.07;;
23608;SDS011;11982;50.810;4.442;2023-03-12T13:04:47;48.20;;;6.88;;
23608;SDS011;11982;50.810;4.442;2023-03-12T13:09:40;48.83;;;7.75;;
23608;SDS011;11982;50.810;4.442;2023-03-12T13:12:12;45.75;;;7.30;;
23608;SDS011;11982;50.810;4.442;2023-03-12T13:14:41;45.63;;;7.53;;
23608;SDS011;11982;50.810;4.442;2023-03-12T13:19:57;57.10;;;8.07;;
23608;SDS011;11982;50.810;4.442;2023-03-12T13:27:41;44.38;;;7.03;;
23608;SDS011;11982;50.810;4.442;2023-03-12T13:43:11;44.58;;;7.65;;
23608;SDS011;11982;50.810;4.442;2023-03-12T13:48:20;41.75;;;6.97;;
23608;SDS011;11982;50.810;4.442;2023-03-12T13:50:53;44.20;;;6.68;;
23608;SDS011;11982;50.810;4.442;2023-03-12T13:53:40;46.13;;;7.20;;
23608;SDS011;11982;50.810;4.442;2023-03-12T13:56:11;44.88;;;7.70;;
23608;SDS011;11982;50.810;4.442;2023-03-12T13:59:02;45.42;;;7.13;;
23608;SDS011;11982;50.810;4.442;2023-03-12T14:01:29;38.72;;;7.18;;
23608;SDS011;11982;50.810;4.442;2023-03-12T14:04:07;45.05;;;8.00;;
23608;SDS011;11982;50.810;4.442;2023-03-12T14:06:47;39.17;;;6.47;;
23608;SDS011;11982;50.810;4.442;2023-03-12T14:09:25;41.42;;;6.80;;
23608;SDS011;11982;50.810;4.442;2023-03-12T14:12:18;43.17;;;6.63;;
23608;SDS011;11982;50.810;4.442;2023-03-12T14:17:44;34.42;;;6.13;;
23608;SDS011;11982;50.810;4.442;2023-03-12T14:20:11;43.63;;;7.18;;
23608;SDS011;11982;50.810;4.442;2023-03-12T14:22:42;43.35;;;6.25;;
23608;SDS011;11982;50.810;4.442;2023-03-12T14:27:57;36.72;;;7.53;;
23608;SDS011;11982;50.810;4.442;2023-03-12T14:33:14;30.30;;;5.03;;
23608;SDS011;11982;50.810;4.442;2023-03-12T14:35:43;33.10;;;5.90;;
23608;SDS011;11982;50.810;4.442;2023-03-12T14:38:47;47.30;;;7.70;;
23608;SDS011;11982;50.810;4.442;2023-03-12T14:41:08;39.75;;;6.15;;
23608;SDS011;11982;50.810;4.442;2023-03-12T14:44:02;40.67;;;6.00;;
23608;SDS011;11982;50.810;4.442;2023-03-12T14:46:30;30.65;;;5.38;;
23608;SDS011;11982;50.810;4.442;2023-03-12T14:48:57;36.00;;;5.88;;
23608;SDS011;11982;50.810;4.442;2023-03-12T14:51:25;39.15;;;7.32;;
23608;SDS011;11982;50.810;4.442;2023-03-12T14:53:53;27.45;;;5.35;;
23608;SDS011;11982;50.810;4.442;2023-03-12T14:56:24;42.47;;;6.10;;
23608;SDS011;11982;50.810;4.442;2023-03-12T14:58:55;35.15;;;6.20;;
23608;SDS011;11982;50.810;4.442;2023-03-12T15:01:27;23.85;;;4.97;;
23608;SDS011;11982;50.810;4.442;2023-03-12T15:03:58;33.58;;;4.95;;
23608;SDS011;11982;50.810;4.442;2023-03-12T15:06:34;35.85;;;4.80;;
23608;SDS011;11982;50.810;4.442;2023-03-12T15:09:03;37.85;;;6.30;;
23608;SDS011;11982;50.810;4.442;2023-03-12T15:11:32;37.63;;;6.28;;
23608;SDS011;11982;50.810;4.442;2023-03-12T15:14:01;34.83;;;6.45;;
23608;SDS011;11982;50.810;4.442;2023-03-12T15:16:30;36.83;;;6.32;;
23608;SDS011;11982;50.810;4.442;2023-03-12T15:18:56;32.03;;;5.50;;
23608;SDS011;11982;50.810;4.442;2023-03-12T15:21:23;28.85;;;4.88;;
23608;SDS011;11982;50.810;4.442;2023-03-12T15:23:49;34.05;;;5.43;;
23608;SDS011;11982;50.810;4.442;2023-03-12T15:28:57;39.00;;;5.65;;
23608;SDS011;11982;50.810;4.442;2023-03-12T15:31:48;32.00;;;4.68;;
23608;SDS011;11982;50.810;4.442;2023-03-12T15:34:31;34.63;;;5.80;;
23608;SDS011;11982;50.810;4.442;2023-03-12T15:37:02;42.17;;;5.90;;
23608;SDS011;11982;50.810;4.442;2023-03-12T15:39:47;38.67;;;5.80;;
23608;SDS011;11982;50.810;4.442;2023-03-12T15:42:16;43.33;;;6.32;;
23608;SDS011;11982;50.810;4.442;2023-03-12T15:44:47;40.97;;;5.25;;
23608;SDS011;11982;50.810;4.442;2023-03-12T15:47:17;42.90;;;6.30;;
23608;SDS011;11982;50.810;4.442;2023-03-12T15:49:58;36.35;;;6.18;;
23608;SDS011;11982;50.810;4.442;2023-03-12T15:52:27;36.92;;;6.38;;
23608;SDS011;11982;50.810;4.442;2023-03-12T15:57:45;35.60;;;5.88;;
23608;SDS011;11982;50.810;4.442;2023-03-12T16:00:14;36.08;;;6.40;;
23608;SDS011;11982;50.810;4.442;2023-03-12T16:05:21;46.13;;;6.60;;
23608;SDS011;11982;50.810;4.442;2023-03-12T16:07:50;39.97;;;6.03;;
23608;SDS011;11982;50.810;4.442;2023-03-12T16:10:17;42.72;;;6.53;;
23608;SDS011;11982;50.810;4.442;2023-03-12T16:12:46;32.20;;;6.03;;
23608;SDS011;11982;50.810;4.442;2023-03-12T16:15:21;36.20;;;6.53;;
23608;SDS011;11982;50.810;4.442;2023-03-12T16:18:00;39.33;;;6.35;;
23608;SDS011;11982;50.810;4.442;2023-03-12T16:20:26;37.45;;;7.47;;
23608;SDS011;11982;50.810;4.442;2023-03-12T16:22:52;33.85;;;6.65;;
23608;SDS011;11982;50.810;4.442;2023-03-12T16:25:18;42.70;;;6.72;;
23608;SDS011;11982;50.810;4.442;2023-03-12T16:27:46;39.40;;;6.85;;
23608;SDS011;11982;50.810;4.442;2023-03-12T16:30:17;32.95;;;6.28;;
23608;SDS011;11982;50.810;4.442;2023-03-12T16:32:53;49.05;;;7.22;;
23608;SDS011;11982;50.810;4.442;2023-03-12T16:35:19;46.13;;;7.80;;
23608;SDS011;11982;50.810;4.442;2023-03-12T16:37:46;41.47;;;6.65;;
23608;SDS011;11982;50.810;4.442;2023-03-12T16:40:13;32.72;;;5.47;;
23608;SDS011;11982;50.810;4.442;2023-03-12T16:42:40;42.03;;;6.35;;
23608;SDS011;11982;50.810;4.442;2023-03-12T16:45:09;44.63;;;7.28;;
23608;SDS011;11982;50.810;4.442;2023-03-12T16:47:37;40.38;;;7.05;;
23608;SDS011;11982;50.810;4.442;2023-03-12T16:50:09;38.17;;;6.25;;